createdAt,value
2023-03-02T00:00:10.569Z,30.40
2023-03-02T00:02:41.525Z,30.35
2023-03-02T00:05:10.242Z,30.06
2023-03-02T00:07:41.725Z,29.83
2023-03-02T00:10:12.891Z,29.72
2023-03-02T00:12:40.969Z,29.71
2023-03-02T00:15:09.431Z,29.66
2023-03-02T00:17:37.000Z,29.60
2023-03-02T00:20:11.563Z,29.57
2023-03-02T00:22:41.650Z,29.55
2023-03-02T00:25:10.083Z,29.74
2023-03-02T00:27:38.309Z,29.76
2023-03-02T00:30:06.550Z,29.32
2023-03-02T00:32:35.615Z,29.14
2023-03-02T00:35:03.145Z,29.02
2023-03-02T00:37:30.836Z,29.03
2023-03-02T00:39:58.273Z,29.02
2023-03-02T00:42:26.297Z,29.03
2023-03-02T00:44:54.131Z,28.99
2023-03-02T00:47:22.538Z,29.03
2023-03-02T00:49:50.885Z,29.05
2023-03-02T00:52:19.602Z,28.99
2023-03-02T00:54:47.129Z,28.89
2023-03-02T00:57:15.668Z,28.87
2023-03-02T00:59:43.071Z,28.95
2023-03-02T01:02:31.950Z,28.93
2023-03-02T01:04:59.601Z,28.81
2023-03-02T01:07:28.217Z,28.91
2023-03-02T01:09:55.572Z,28.98
2023-03-02T01:12:22.938Z,29.00
2023-03-02T01:14:50.918Z,29.03
2023-03-02T01:17:19.170Z,29.29
2023-03-02T01:19:48.090Z,29.31
2023-03-02T01:22:15.968Z,29.07
2023-03-02T01:24:43.871Z,29.06
2023-03-02T01:27:10.898Z,29.13
2023-03-02T01:29:39.075Z,28.96
2023-03-02T01:32:06.681Z,28.88
2023-03-02T01:34:33.755Z,28.77
2023-03-02T01:37:01.785Z,28.78
2023-03-02T01:39:36.322Z,28.79
2023-03-02T01:44:46.985Z,28.56
2023-03-02T01:47:21.966Z,28.34
2023-03-02T01:49:58.945Z,28.28
2023-03-02T01:52:29.127Z,28.23
2023-03-02T01:55:00.808Z,28.26
2023-03-02T01:57:30.866Z,28.06
2023-03-02T02:00:01.887Z,28.00
2023-03-02T02:02:42.968Z,28.16
2023-03-02T02:05:19.905Z,28.15
2023-03-02T02:07:50.899Z,28.14
2023-03-02T02:10:20.267Z,28.24
2023-03-02T02:12:51.646Z,28.18
2023-03-02T02:15:20.396Z,28.16
2023-03-02T02:17:49.817Z,28.20
2023-03-02T02:20:25.347Z,28.17
2023-03-02T02:23:02.050Z,28.15
2023-03-02T02:25:41.781Z,28.15
2023-03-02T02:28:13.528Z,28.10
2023-03-02T02:30:43.099Z,28.07
2023-03-02T02:33:19.201Z,28.02
2023-03-02T02:35:49.084Z,28.10
2023-03-02T02:38:19.158Z,28.01
2023-03-02T02:40:56.555Z,27.95
2023-03-02T02:43:31.039Z,27.74
2023-03-02T02:46:01.668Z,27.78
2023-03-02T02:48:32.094Z,27.84
2023-03-02T02:51:02.425Z,27.87
2023-03-02T02:53:53.058Z,27.91
2023-03-02T02:56:27.864Z,28.00
2023-03-02T02:58:57.687Z,28.08
2023-03-02T03:01:32.523Z,28.17
2023-03-02T03:04:06.126Z,28.24
2023-03-02T03:06:43.505Z,28.19
2023-03-02T03:09:13.724Z,28.16
2023-03-02T03:11:56.333Z,28.06
2023-03-02T03:14:30.445Z,28.10
2023-03-02T03:17:00.292Z,28.19
2023-03-02T03:19:31.680Z,28.17
2023-03-02T03:22:02.567Z,28.12
2023-03-02T03:24:39.818Z,28.02
2023-03-02T03:27:10.285Z,27.98
2023-03-02T03:29:41.897Z,28.02
2023-03-02T03:32:11.458Z,27.90
2023-03-02T03:34:42.867Z,28.06
2023-03-02T03:37:18.692Z,28.21
2023-03-02T03:39:48.518Z,28.07
2023-03-02T03:42:19.163Z,27.98
2023-03-02T03:44:48.471Z,27.99
2023-03-02T03:47:20.127Z,27.89
2023-03-02T03:49:50.225Z,27.86
2023-03-02T03:52:30.966Z,27.91
2023-03-02T03:55:14.048Z,27.94
2023-03-02T03:57:47.933Z,27.92
2023-03-02T04:00:20.590Z,27.92
2023-03-02T04:02:56.763Z,27.93
2023-03-02T04:12:57.547Z,28.19
2023-03-02T04:15:27.419Z,27.99
2023-03-02T04:17:59.574Z,27.90
2023-03-02T04:20:29.165Z,27.88
2023-03-02T04:23:02.155Z,27.89
2023-03-02T04:25:37.285Z,27.96
2023-03-02T04:28:12.429Z,27.98
2023-03-02T04:30:47.488Z,28.06
2023-03-02T04:33:17.893Z,28.20
2023-03-02T04:35:47.142Z,28.29
2023-03-02T04:38:17.461Z,28.26
2023-03-02T04:40:47.526Z,28.18
2023-03-02T04:43:20.148Z,28.17
2023-03-02T04:45:49.719Z,28.16
2023-03-02T04:48:20.539Z,28.08
2023-03-02T04:50:51.370Z,28.03
2023-03-02T04:53:20.998Z,28.01
2023-03-02T04:55:52.757Z,27.99
2023-03-02T04:58:27.510Z,28.00
2023-03-02T05:01:03.541Z,27.98
2023-03-02T05:03:34.218Z,27.98
2023-03-02T05:06:08.799Z,28.15
2023-03-02T05:08:38.719Z,28.01
2023-03-02T05:11:08.605Z,28.08
2023-03-02T05:13:38.304Z,28.09
2023-03-02T05:16:11.687Z,28.07
2023-03-02T05:18:41.228Z,28.09
2023-03-02T05:21:19.820Z,28.15
2023-03-02T05:23:50.758Z,28.14
2023-03-02T05:26:22.425Z,28.15
2023-03-02T05:28:54.010Z,28.22
2023-03-02T05:31:24.510Z,28.24
2023-03-02T05:33:57.559Z,28.32
2023-03-02T05:36:26.997Z,28.29
2023-03-02T05:38:56.702Z,28.33
2023-03-02T05:41:26.643Z,28.36
2023-03-02T05:43:56.404Z,28.35
2023-03-02T05:46:26.529Z,28.39
2023-03-02T05:48:56.491Z,28.41
2023-03-02T05:51:28.534Z,28.45
2023-03-02T05:53:59.813Z,28.37
2023-03-02T05:56:31.394Z,28.42
2023-03-02T05:59:02.357Z,28.54
2023-03-02T06:01:32.513Z,28.59
2023-03-02T06:04:02.724Z,28.68
2023-03-02T06:06:35.787Z,28.77
2023-03-02T06:09:08.106Z,28.90
2023-03-02T06:11:41.960Z,29.04
2023-03-02T06:14:12.977Z,29.18
2023-03-02T06:16:45.108Z,29.26
2023-03-02T06:19:14.715Z,29.28
2023-03-02T06:21:49.933Z,29.29
2023-03-02T06:24:19.479Z,29.32
2023-03-02T06:26:49.297Z,29.26
2023-03-02T06:29:19.875Z,29.37
2023-03-02T06:31:55.212Z,29.51
2023-03-02T06:34:25.135Z,29.50
2023-03-02T06:36:57.312Z,29.50
2023-03-02T06:39:26.500Z,29.53
2023-03-02T06:41:57.235Z,29.62
2023-03-02T06:44:26.684Z,29.72
2023-03-02T06:46:56.361Z,29.72
2023-03-02T06:49:25.979Z,29.73
2023-03-02T06:51:56.934Z,29.86
2023-03-02T06:54:26.625Z,29.99
2023-03-02T06:56:58.091Z,30.05
2023-03-02T06:59:27.698Z,30.10
2023-03-02T07:02:01.190Z,30.20
2023-03-02T07:04:33.504Z,30.39
2023-03-02T07:07:05.107Z,30.45
2023-03-02T07:09:36.662Z,30.61
2023-03-02T07:12:07.179Z,30.75
2023-03-02T07:14:43.106Z,30.81
2023-03-02T07:17:16.120Z,30.83
2023-03-02T07:19:47.458Z,30.94
2023-03-02T07:22:18.832Z,31.03
2023-03-02T07:24:48.304Z,31.17
2023-03-02T07:27:17.272Z,31.21
2023-03-02T07:29:48.090Z,31.20
2023-03-02T07:32:18.148Z,31.27
2023-03-02T07:34:47.478Z,31.42
2023-03-02T07:37:17.070Z,31.43
2023-03-02T07:39:47.481Z,31.48
2023-03-02T07:42:17.883Z,31.51
2023-03-02T07:44:57.755Z,31.58
2023-03-02T07:47:27.468Z,31.76
2023-03-02T07:49:57.298Z,31.86
2023-03-02T07:52:27.107Z,31.99
2023-03-02T07:54:56.391Z,32.04
2023-03-02T07:57:27.560Z,32.02
2023-03-02T07:59:57.437Z,32.08
2023-03-02T08:02:28.131Z,32.24
2023-03-02T08:04:59.201Z,32.26
2023-03-02T08:07:32.946Z,32.36
2023-03-02T08:10:03.065Z,32.53
2023-03-02T08:12:32.779Z,32.72
2023-03-02T08:15:03.743Z,32.85
2023-03-02T08:17:33.786Z,33.04
2023-03-02T08:20:02.558Z,33.22
2023-03-02T08:22:32.943Z,33.35
2023-03-02T08:25:05.446Z,33.44
2023-03-02T08:27:35.947Z,33.45
2023-03-02T08:30:06.353Z,33.44
2023-03-02T08:32:36.667Z,33.37
2023-03-02T08:35:11.318Z,33.39
2023-03-02T08:37:40.366Z,33.51
2023-03-02T08:40:11.262Z,33.62
2023-03-02T08:42:42.745Z,33.75
2023-03-02T08:45:14.369Z,34.01
2023-03-02T08:47:43.856Z,34.11
2023-03-02T08:50:14.386Z,33.97
2023-03-02T08:52:44.973Z,33.87
2023-03-02T08:55:14.695Z,33.88
2023-03-02T08:57:44.523Z,33.89
2023-03-02T09:00:16.899Z,34.02
2023-03-02T09:02:46.325Z,34.26
2023-03-02T09:05:16.782Z,34.32
2023-03-02T09:07:47.823Z,34.35
2023-03-02T09:10:19.522Z,34.53
2023-03-02T09:12:49.784Z,34.83
2023-03-02T09:15:19.081Z,34.83
2023-03-02T09:17:53.297Z,34.78
2023-03-02T09:20:22.739Z,35.01
2023-03-02T09:22:51.953Z,35.15
2023-03-02T09:25:21.824Z,35.02
2023-03-02T09:27:56.339Z,34.81
2023-03-02T09:30:25.846Z,35.13
2023-03-02T09:32:56.157Z,35.36
2023-03-02T09:35:26.486Z,35.31
2023-03-02T09:37:56.016Z,35.34
2023-03-02T09:40:27.231Z,35.12
2023-03-02T09:43:30.431Z,35.00
2023-03-02T09:46:10.358Z,35.02
2023-03-02T09:48:48.181Z,35.12
2023-03-02T09:51:40.378Z,35.32
2023-03-02T09:54:10.892Z,35.34
2023-03-02T09:56:49.791Z,35.38
2023-03-02T09:59:34.759Z,35.41
2023-03-02T10:02:04.545Z,35.37
2023-03-02T10:04:39.404Z,35.38
2023-03-02T10:07:16.481Z,35.64
2023-03-02T10:09:46.068Z,35.90
2023-03-02T10:12:37.439Z,36.08
2023-03-02T10:15:10.497Z,36.29
2023-03-02T10:17:56.356Z,36.45
2023-03-02T10:20:34.158Z,36.59
2023-03-02T10:23:22.845Z,36.44
2023-03-02T10:26:01.924Z,36.27
2023-03-02T10:28:36.815Z,36.09
2023-03-02T10:31:09.997Z,36.05
2023-03-02T10:33:46.026Z,36.11
2023-03-02T10:36:22.851Z,36.18
2023-03-02T10:38:52.965Z,36.32
2023-03-02T10:41:34.407Z,36.47
2023-03-02T10:44:22.847Z,36.62
2023-03-02T10:46:54.761Z,36.97
2023-03-02T10:49:28.887Z,36.98
2023-03-02T10:52:06.653Z,36.93
2023-03-02T10:54:39.702Z,37.36
2023-03-02T10:57:31.241Z,37.52
2023-03-02T11:00:03.403Z,37.35
2023-03-02T11:02:35.379Z,37.37
2023-03-02T11:05:22.161Z,37.39
2023-03-02T11:07:58.859Z,37.34
2023-03-02T11:10:37.463Z,37.22
2023-03-02T11:13:32.805Z,37.15
2023-03-02T11:16:08.267Z,37.02
2023-03-02T11:18:38.722Z,37.04
2023-03-02T11:21:13.995Z,37.08
2023-03-02T11:23:43.145Z,37.27
2023-03-02T11:26:16.731Z,37.40
2023-03-02T11:29:06.960Z,37.49
2023-03-02T11:31:37.921Z,37.57
2023-03-02T11:34:21.316Z,37.34
2023-03-02T11:37:10.658Z,37.25
2023-03-02T11:39:56.898Z,37.23
2023-03-02T11:42:34.741Z,37.33
2023-03-02T11:45:07.402Z,37.46
2023-03-02T11:47:39.865Z,37.63
2023-03-02T11:50:11.453Z,37.58
2023-03-02T11:53:04.941Z,37.49
2023-03-02T11:55:41.776Z,37.41
2023-03-02T11:58:16.387Z,37.42
2023-03-02T12:00:47.174Z,37.44
2023-03-02T12:03:46.216Z,37.61
2023-03-02T12:06:23.454Z,37.76
2023-03-02T12:09:07.946Z,37.82
2023-03-02T12:11:39.765Z,37.71
2023-03-02T12:14:45.055Z,37.82
2023-03-02T12:17:27.843Z,37.74
2023-03-02T12:20:09.184Z,37.75
2023-03-02T12:22:43.172Z,37.78
2023-03-02T12:25:22.616Z,37.84
2023-03-02T12:27:52.752Z,37.85
2023-03-02T12:30:25.854Z,37.73
2023-03-02T12:33:03.306Z,37.78
2023-03-02T12:35:34.487Z,37.85
2023-03-02T12:38:05.450Z,37.77
2023-03-02T12:40:54.462Z,37.81
2023-03-02T12:43:27.662Z,37.82
2023-03-02T12:46:17.985Z,37.84
2023-03-02T12:48:50.493Z,37.87
2023-03-02T12:51:24.091Z,37.99
2023-03-02T12:54:03.256Z,38.14
2023-03-02T12:56:36.107Z,38.29
2023-03-02T12:59:08.836Z,38.47
2023-03-02T13:01:48.998Z,38.45
2023-03-02T13:04:21.900Z,38.49
2023-03-02T13:06:51.814Z,38.67
2023-03-02T13:09:22.854Z,38.86
2023-03-02T13:11:56.469Z,38.99
2023-03-02T13:14:26.944Z,39.00
2023-03-02T13:17:03.798Z,38.79
2023-03-02T13:19:34.344Z,38.75
2023-03-02T13:22:04.937Z,38.52
2023-03-02T13:24:53.665Z,38.22
2023-03-02T13:27:26.337Z,38.02
2023-03-02T13:29:58.941Z,37.76
2023-03-02T13:32:37.616Z,37.73
2023-03-02T13:35:16.607Z,37.51
2023-03-02T13:37:46.709Z,37.57
2023-03-02T13:40:22.768Z,37.71
2023-03-02T13:42:53.100Z,38.05
2023-03-02T13:45:31.880Z,38.36
2023-03-02T13:48:13.326Z,38.42
2023-03-02T13:50:51.662Z,38.62
2023-03-02T13:53:25.185Z,38.68
2023-03-02T13:55:56.678Z,38.60
2023-03-02T13:58:28.879Z,38.65
2023-03-02T14:00:59.097Z,38.78
2023-03-02T14:03:30.937Z,39.03
2023-03-02T14:06:02.771Z,39.41
2023-03-02T14:08:32.944Z,39.67
2023-03-02T14:11:06.591Z,39.56
2023-03-02T14:13:47.013Z,39.55
2023-03-02T14:16:17.717Z,39.31
2023-03-02T14:18:48.191Z,39.00
2023-03-02T14:21:19.741Z,38.63
2023-03-02T14:23:52.484Z,38.28
2023-03-02T14:26:24.135Z,38.45
2023-03-02T14:29:04.673Z,38.41
2023-03-02T14:31:36.433Z,38.23
2023-03-02T14:34:10.469Z,37.86
2023-03-02T14:36:41.820Z,37.61
2023-03-02T14:39:17.681Z,37.51
2023-03-02T14:41:53.356Z,37.59
2023-03-02T14:44:28.070Z,37.65
2023-03-02T14:46:58.054Z,37.39
2023-03-02T14:49:27.471Z,37.16
2023-03-02T14:52:03.552Z,37.06
2023-03-02T14:54:38.387Z,36.99
2023-03-02T14:57:11.571Z,36.94
2023-03-02T14:59:42.181Z,36.97
2023-03-02T15:02:24.837Z,37.02
2023-03-02T15:05:13.278Z,36.99
2023-03-02T15:07:45.109Z,36.93
2023-03-02T15:10:18.555Z,37.10
2023-03-02T15:12:47.711Z,37.23
2023-03-02T15:15:17.657Z,37.19
2023-03-02T15:17:49.412Z,37.03
2023-03-02T15:20:25.361Z,36.73
2023-03-02T15:22:56.595Z,36.36
2023-03-02T15:25:27.065Z,36.24
2023-03-02T15:27:58.608Z,36.09
2023-03-02T15:30:31.763Z,35.92
2023-03-02T15:33:03.758Z,35.85
2023-03-02T15:35:36.779Z,35.70
2023-03-02T15:38:07.203Z,35.60
2023-03-02T15:40:38.796Z,35.47
2023-03-02T15:50:44.788Z,35.33
2023-03-02T15:53:16.142Z,35.18
2023-03-02T15:55:47.994Z,35.05
2023-03-02T15:58:18.789Z,34.96
2023-03-02T16:00:50.715Z,34.88
2023-03-02T16:03:23.316Z,34.86
2023-03-02T16:05:59.595Z,34.72
2023-03-02T16:08:29.104Z,34.55
2023-03-02T16:11:01.185Z,34.38
2023-03-02T16:13:36.881Z,34.28
2023-03-02T16:16:10.465Z,34.25
2023-03-02T16:18:41.383Z,34.16
2023-03-02T16:21:15.459Z,34.20
2023-03-02T16:23:44.960Z,34.37
2023-03-02T16:26:17.886Z,34.35
2023-03-02T16:28:47.157Z,34.18
2023-03-02T16:31:18.534Z,34.13
2023-03-02T16:33:51.149Z,34.07
2023-03-02T16:36:22.642Z,33.98
2023-03-02T16:38:53.517Z,33.80
2023-03-02T16:41:24.002Z,33.50
2023-03-02T16:43:54.929Z,33.25
2023-03-02T16:46:26.503Z,33.25
2023-03-02T16:49:16.523Z,33.23
2023-03-02T16:51:45.947Z,33.09
2023-03-02T16:54:20.370Z,32.97
2023-03-02T16:56:51.038Z,33.01
2023-03-02T16:59:25.850Z,32.97
2023-03-02T17:01:55.371Z,32.80
2023-03-02T17:04:25.799Z,32.69
2023-03-02T17:07:00.727Z,32.66
2023-03-02T17:09:32.487Z,32.65
2023-03-02T17:12:02.656Z,32.60
2023-03-02T17:14:32.543Z,32.52
2023-03-02T17:17:05.354Z,32.37
2023-03-02T17:19:34.660Z,32.31
2023-03-02T17:22:04.603Z,32.48
2023-03-02T17:24:37.024Z,32.53
2023-03-02T17:27:15.851Z,32.50
2023-03-02T17:29:53.023Z,32.57
2023-03-02T17:32:23.332Z,32.46
2023-03-02T17:34:53.603Z,32.25
2023-03-02T17:37:23.215Z,32.15
2023-03-02T17:39:53.222Z,32.12
2023-03-02T17:42:25.284Z,32.10
2023-03-02T17:44:54.888Z,32.00
2023-03-02T17:47:24.345Z,32.02
2023-03-02T17:49:55.748Z,31.99
2023-03-02T17:52:26.724Z,31.91
2023-03-02T17:55:00.105Z,31.80
2023-03-02T17:57:29.688Z,31.68
2023-03-02T17:59:59.468Z,31.61
2023-03-02T18:02:40.052Z,31.58
2023-03-02T18:05:11.343Z,31.44
2023-03-02T18:07:40.920Z,31.33
2023-03-02T18:10:12.822Z,31.28
2023-03-02T18:12:43.410Z,31.16
2023-03-02T18:15:13.503Z,31.01
2023-03-02T18:17:45.923Z,30.92
2023-03-02T18:20:15.214Z,30.88
2023-03-02T18:22:44.844Z,30.88
2023-03-02T18:25:17.480Z,31.03
2023-03-02T18:29:23.269Z,28.35
2023-03-02T18:31:55.455Z,30.81
2023-03-02T18:34:25.399Z,30.96
2023-03-02T18:36:56.422Z,30.93
2023-03-02T18:39:26.542Z,30.88
2023-03-02T18:41:57.232Z,30.98
2023-03-02T18:44:28.784Z,31.05
2023-03-02T18:47:03.305Z,31.13
2023-03-02T18:49:34.313Z,31.07
2023-03-02T18:52:11.635Z,31.11
2023-03-02T18:54:44.860Z,31.19
2023-03-02T18:57:15.233Z,31.14
2023-03-02T18:59:45.158Z,31.19
2023-03-02T19:02:15.528Z,31.19
2023-03-02T19:04:45.249Z,31.05
2023-03-02T19:07:16.638Z,31.09
2023-03-02T19:09:45.907Z,30.98
2023-03-02T19:12:18.325Z,31.04
2023-03-02T19:14:49.513Z,31.02
2023-03-02T19:17:18.958Z,31.01
2023-03-02T19:19:53.856Z,31.00
2023-03-02T19:22:24.368Z,30.95
2023-03-02T19:24:55.707Z,30.82
2023-03-02T19:27:29.705Z,30.78
2023-03-02T19:30:00.230Z,30.73
2023-03-02T19:32:29.895Z,30.71
2023-03-02T19:35:00.133Z,30.69
2023-03-02T19:37:29.871Z,30.81
2023-03-02T19:39:59.972Z,30.79
2023-03-02T19:42:35.685Z,30.79
2023-03-02T19:45:06.784Z,30.83
2023-03-02T19:47:37.899Z,30.77
2023-03-02T19:50:28.929Z,30.72
2023-03-02T19:53:01.185Z,30.66
2023-03-02T19:55:35.006Z,30.66
2023-03-02T19:58:08.384Z,30.60
2023-03-02T20:00:40.068Z,30.59
2023-03-02T20:03:11.304Z,30.61
2023-03-02T20:05:43.882Z,30.60
2023-03-02T20:08:15.863Z,30.64
2023-03-02T20:10:53.540Z,30.69
2023-03-02T20:13:26.808Z,30.63
2023-03-02T20:15:57.032Z,30.50
2023-03-02T20:18:27.063Z,30.38
2023-03-02T20:20:59.440Z,30.32
2023-03-02T20:23:30.060Z,30.27
2023-03-02T20:25:59.974Z,30.21
2023-03-02T20:28:30.834Z,30.14
2023-03-02T20:31:02.913Z,30.10
2023-03-02T20:33:34.534Z,30.19
2023-03-02T20:36:14.994Z,30.08
2023-03-02T20:38:48.279Z,29.91
2023-03-02T20:41:17.814Z,29.86
2023-03-02T20:43:48.715Z,29.73
2023-03-02T20:46:26.455Z,29.68
2023-03-02T20:48:59.255Z,29.63
2023-03-02T20:51:30.815Z,29.53
2023-03-02T20:54:01.608Z,29.51
2023-03-02T20:56:34.706Z,29.48
2023-03-02T20:59:05.432Z,29.42
2023-03-02T21:01:34.908Z,29.36
2023-03-02T21:04:04.622Z,29.33
2023-03-02T21:06:35.523Z,29.10
2023-03-02T21:09:06.502Z,29.33
2023-03-02T21:11:43.363Z,29.32
2023-03-02T21:14:17.095Z,29.41
2023-03-02T21:16:46.603Z,29.36
2023-03-02T21:19:18.733Z,29.49
2023-03-02T21:21:48.923Z,29.55
2023-03-02T21:24:18.424Z,29.52
2023-03-02T21:26:49.789Z,29.39
2023-03-02T21:29:21.311Z,29.07
2023-03-02T21:31:53.077Z,28.79
2023-03-02T21:34:24.305Z,28.66
2023-03-02T21:36:59.438Z,28.58
2023-03-02T21:39:33.344Z,28.58
2023-03-02T21:42:03.645Z,28.52
2023-03-02T21:44:33.536Z,28.46
2023-03-02T21:47:02.685Z,28.43
2023-03-02T21:49:32.937Z,28.49
2023-03-02T21:52:02.110Z,28.54
2023-03-02T21:54:32.688Z,28.53
2023-03-02T21:57:03.356Z,28.54
2023-03-02T21:59:38.279Z,28.46
2023-03-02T22:02:08.326Z,28.54
2023-03-02T22:04:39.506Z,28.59
2023-03-02T22:07:09.676Z,28.71
2023-03-02T22:09:44.769Z,28.80
2023-03-02T22:12:14.627Z,28.84
2023-03-02T22:14:44.441Z,28.92
2023-03-02T22:17:24.696Z,28.98
2023-03-02T22:19:56.446Z,28.92
2023-03-02T22:22:35.786Z,29.04
2023-03-02T22:25:16.150Z,29.04
2023-03-02T22:27:47.524Z,29.06
2023-03-02T22:30:25.051Z,29.10
2023-03-02T22:33:00.327Z,29.11
2023-03-02T22:35:32.431Z,29.12
2023-03-02T22:38:07.208Z,29.08
2023-03-02T22:40:42.084Z,29.08
2023-03-02T22:43:12.749Z,29.12
2023-03-02T22:45:42.499Z,29.03
2023-03-02T22:48:18.151Z,29.00
2023-03-02T22:50:49.672Z,28.90
2023-03-02T22:53:32.813Z,28.86
2023-03-02T22:56:03.304Z,28.92
2023-03-02T23:02:04.131Z,29.08
2023-03-02T23:04:37.929Z,28.95
2023-03-02T23:07:19.224Z,28.96
2023-03-02T23:09:49.293Z,29.18
2023-03-02T23:12:28.266Z,29.52
2023-03-02T23:14:58.688Z,29.49
2023-03-02T23:17:39.862Z,29.49
2023-03-02T23:20:11.215Z,29.60
2023-03-02T23:22:40.973Z,29.53
2023-03-02T23:25:10.643Z,29.64
2023-03-02T23:27:41.655Z,30.05
2023-03-02T23:30:12.289Z,30.26
2023-03-02T23:32:41.722Z,30.38
2023-03-02T23:35:10.700Z,30.39
2023-03-02T23:37:39.981Z,30.42
2023-03-02T23:40:10.580Z,30.23
2023-03-02T23:42:40.017Z,30.12
2023-03-02T23:45:10.433Z,30.24
2023-03-02T23:47:41.297Z,30.27
2023-03-02T23:54:22.394Z,30.48
2023-03-02T23:56:51.175Z,30.66
2023-03-02T23:59:20.654Z,30.87
